Terminal Aerodrome Forecast
Issued by NWS

Home | Current Version | Previous Version | Graphics & Text | Print | Product List | Glossary On
Versions: 1 2 3 4 5 6 7 8 9 10 11 12 13 14 15 16 17 18 19 20 21 22 23 24
000
FTUS43 KICT 192127 AAD
TAFRSL
TAF AMD
KRSL 192127Z 1921/2018 36010KT P6SM BKN020
     FM192300 03007KT P6SM BKN025
     FM200200 06009KT P6SM BKN030
     FM200700 03013KT P6SM BKN020
     FM201400 35016G23KT P6SM BKN030=

USA.gov is the U.S. government's official web portal to all federal, state and local government web resources and services.